sensor_id;sensor_type;location;lat;lon;timestamp;P1;durP1;ratioP1;P2;durP2;ratioP2
52512;SDS011;38422;53.172;6.974;2023-05-10T00:00:07;9.52;;;8.55;;
52512;SDS011;38422;53.172;6.974;2023-05-10T00:02:37;9.43;;;8.52;;
52512;SDS011;38422;53.172;6.974;2023-05-10T00:05:03;9.80;;;8.80;;
52512;SDS011;38422;53.172;6.974;2023-05-10T00:07:30;9.73;;;8.73;;
52512;SDS011;38422;53.172;6.974;2023-05-10T00:09:55;9.48;;;8.57;;
52512;SDS011;38422;53.172;6.974;2023-05-10T00:12:21;10.18;;;9.18;;
52512;SDS011;38422;53.172;6.974;2023-05-10T00:14:47;10.07;;;8.90;;
52512;SDS011;38422;53.172;6.974;2023-05-10T00:17:14;9.15;;;8.35;;
52512;SDS011;38422;53.172;6.974;2023-05-10T00:19:39;9.43;;;8.32;;
52512;SDS011;38422;53.172;6.974;2023-05-10T00:22:05;10.25;;;9.05;;
52512;SDS011;38422;53.172;6.974;2023-05-10T00:24:34;10.25;;;9.18;;
52512;SDS011;38422;53.172;6.974;2023-05-10T00:26:59;9.73;;;8.70;;
52512;SDS011;38422;53.172;6.974;2023-05-10T00:29:25;9.38;;;8.48;;
52512;SDS011;38422;53.172;6.974;2023-05-10T00:34:18;5.55;;;5.00;;
52512;SDS011;38422;53.172;6.974;2023-05-10T00:36:44;4.32;;;3.90;;
52512;SDS011;38422;53.172;6.974;2023-05-10T00:39:12;2.33;;;1.88;;
52512;SDS011;38422;53.172;6.974;2023-05-10T00:41:38;1.50;;;1.23;;
52512;SDS011;38422;53.172;6.974;2023-05-10T00:44:04;1.05;;;0.80;;
52512;SDS011;38422;53.172;6.974;2023-05-10T00:46:29;1.15;;;1.05;;
52512;SDS011;38422;53.172;6.974;2023-05-10T00:48:55;1.52;;;1.42;;
52512;SDS011;38422;53.172;6.974;2023-05-10T00:51:21;2.63;;;1.70;;
52512;SDS011;38422;53.172;6.974;2023-05-10T00:53:47;2.28;;;1.92;;
52512;SDS011;38422;53.172;6.974;2023-05-10T00:56:14;3.17;;;2.88;;
52512;SDS011;38422;53.172;6.974;2023-05-10T00:58:41;4.00;;;3.60;;
52512;SDS011;38422;53.172;6.974;2023-05-10T01:01:07;4.47;;;4.07;;
52512;SDS011;38422;53.172;6.974;2023-05-10T01:03:36;5.43;;;4.93;;
52512;SDS011;38422;53.172;6.974;2023-05-10T01:06:02;6.28;;;5.65;;
52512;SDS011;38422;53.172;6.974;2023-05-10T01:08:28;6.07;;;5.30;;
52512;SDS011;38422;53.172;6.974;2023-05-10T01:10:54;6.18;;;5.57;;
52512;SDS011;38422;53.172;6.974;2023-05-10T01:13:37;6.82;;;5.90;;
52512;SDS011;38422;53.172;6.974;2023-05-10T01:16:04;6.00;;;5.40;;
52512;SDS011;38422;53.172;6.974;2023-05-10T01:32:24;5.55;;;5.05;;
52512;SDS011;38422;53.172;6.974;2023-05-10T01:38:19;5.85;;;5.25;;
52512;SDS011;38422;53.172;6.974;2023-05-10T01:40:58;5.90;;;5.30;;
52512;SDS011;38422;53.172;6.974;2023-05-10T01:43:37;6.05;;;5.20;;
52512;SDS011;38422;53.172;6.974;2023-05-10T01:46:35;7.25;;;5.68;;
52512;SDS011;38422;53.172;6.974;2023-05-10T01:49:06;5.93;;;5.40;;
52512;SDS011;38422;53.172;6.974;2023-05-10T01:51:53;6.72;;;5.97;;
52512;SDS011;38422;53.172;6.974;2023-05-10T01:54:22;6.30;;;5.70;;
52512;SDS011;38422;53.172;6.974;2023-05-10T01:56:55;6.75;;;6.10;;
52512;SDS011;38422;53.172;6.974;2023-05-10T01:59:26;6.35;;;5.75;;
52512;SDS011;38422;53.172;6.974;2023-05-10T02:01:55;6.03;;;5.43;;
52512;SDS011;38422;53.172;6.974;2023-05-10T02:04:23;6.20;;;5.60;;
52512;SDS011;38422;53.172;6.974;2023-05-10T02:06:51;7.45;;;5.72;;
52512;SDS011;38422;53.172;6.974;2023-05-10T02:09:19;5.70;;;5.05;;
52512;SDS011;38422;53.172;6.974;2023-05-10T02:11:46;6.05;;;5.45;;
52512;SDS011;38422;53.172;6.974;2023-05-10T02:14:14;5.60;;;4.90;;
52512;SDS011;38422;53.172;6.974;2023-05-10T02:16:43;5.93;;;5.32;;
52512;SDS011;38422;53.172;6.974;2023-05-10T02:19:10;6.07;;;5.25;;
52512;SDS011;38422;53.172;6.974;2023-05-10T02:21:39;5.90;;;5.30;;
52512;SDS011;38422;53.172;6.974;2023-05-10T02:24:06;6.43;;;5.80;;
52512;SDS011;38422;53.172;6.974;2023-05-10T02:26:34;6.50;;;5.80;;
52512;SDS011;38422;53.172;6.974;2023-05-10T02:31:28;6.68;;;5.97;;
52512;SDS011;38422;53.172;6.974;2023-05-10T02:33:56;6.25;;;5.65;;
52512;SDS011;38422;53.172;6.974;2023-05-10T02:36:23;6.35;;;5.65;;
52512;SDS011;38422;53.172;6.974;2023-05-10T02:38:52;6.53;;;5.72;;
52512;SDS011;38422;53.172;6.974;2023-05-10T02:41:19;6.80;;;6.10;;
52512;SDS011;38422;53.172;6.974;2023-05-10T02:43:49;6.22;;;5.50;;
52512;SDS011;38422;53.172;6.974;2023-05-10T02:46:18;7.03;;;5.63;;
52512;SDS011;38422;53.172;6.974;2023-05-10T02:48:47;6.60;;;5.72;;
52512;SDS011;38422;53.172;6.974;2023-05-10T02:51:13;6.30;;;5.70;;
52512;SDS011;38422;53.172;6.974;2023-05-10T02:53:43;6.55;;;5.85;;
52512;SDS011;38422;53.172;6.974;2023-05-10T02:56:15;6.47;;;5.88;;
52512;SDS011;38422;53.172;6.974;2023-05-10T02:58:50;6.38;;;5.78;;
52512;SDS011;38422;53.172;6.974;2023-05-10T03:01:16;6.70;;;6.00;;
52512;SDS011;38422;53.172;6.974;2023-05-10T03:03:41;6.85;;;6.15;;
52512;SDS011;38422;53.172;6.974;2023-05-10T03:06:07;7.15;;;6.43;;
52512;SDS011;38422;53.172;6.974;2023-05-10T03:08:33;6.40;;;5.70;;
52512;SDS011;38422;53.172;6.974;2023-05-10T03:17:00;6.17;;;5.57;;
52512;SDS011;38422;53.172;6.974;2023-05-10T03:22:08;6.28;;;5.68;;
52512;SDS011;38422;53.172;6.974;2023-05-10T03:24:36;6.00;;;5.07;;
52512;SDS011;38422;53.172;6.974;2023-05-10T03:27:04;5.85;;;5.25;;
52512;SDS011;38422;53.172;6.974;2023-05-10T03:29:31;5.30;;;4.80;;
52512;SDS011;38422;53.172;6.974;2023-05-10T03:31:57;6.50;;;5.80;;
52512;SDS011;38422;53.172;6.974;2023-05-10T03:34:24;6.22;;;5.35;;
52512;SDS011;38422;53.172;6.974;2023-05-10T03:36:50;5.80;;;5.20;;
52512;SDS011;38422;53.172;6.974;2023-05-10T03:39:16;6.15;;;5.55;;
52512;SDS011;38422;53.172;6.974;2023-05-10T03:41:42;6.15;;;5.55;;
52512;SDS011;38422;53.172;6.974;2023-05-10T03:44:07;6.30;;;5.70;;
52512;SDS011;38422;53.172;6.974;2023-05-10T03:46:33;6.85;;;6.15;;
52512;SDS011;38422;53.172;6.974;2023-05-10T03:48:59;7.18;;;6.47;;
52512;SDS011;38422;53.172;6.974;2023-05-10T03:51:24;7.05;;;6.18;;
52512;SDS011;38422;53.172;6.974;2023-05-10T03:53:53;10.88;;;6.13;;
52512;SDS011;38422;53.172;6.974;2023-05-10T03:56:20;7.60;;;6.75;;
52512;SDS011;38422;53.172;6.974;2023-05-10T03:58:46;8.45;;;6.63;;
52512;SDS011;38422;53.172;6.974;2023-05-10T04:01:12;7.47;;;6.70;;
52512;SDS011;38422;53.172;6.974;2023-05-10T04:03:37;7.50;;;6.68;;
52512;SDS011;38422;53.172;6.974;2023-05-10T04:06:03;7.72;;;6.93;;
52512;SDS011;38422;53.172;6.974;2023-05-10T04:08:29;7.90;;;7.03;;
52512;SDS011;38422;53.172;6.974;2023-05-10T04:11:04;7.80;;;6.93;;
52512;SDS011;38422;53.172;6.974;2023-05-10T04:13:31;8.88;;;7.47;;
52512;SDS011;38422;53.172;6.974;2023-05-10T04:15:57;8.45;;;7.22;;
52512;SDS011;38422;53.172;6.974;2023-05-10T04:18:23;8.75;;;7.70;;
52512;SDS011;38422;53.172;6.974;2023-05-10T04:20:48;8.50;;;7.60;;
52512;SDS011;38422;53.172;6.974;2023-05-10T04:23:14;8.35;;;7.40;;
52512;SDS011;38422;53.172;6.974;2023-05-10T04:25:41;9.02;;;8.10;;
52512;SDS011;38422;53.172;6.974;2023-05-10T04:28:07;9.48;;;8.40;;
52512;SDS011;38422;53.172;6.974;2023-05-10T04:30:33;12.10;;;8.77;;
52512;SDS011;38422;53.172;6.974;2023-05-10T04:32:59;9.20;;;8.20;;
52512;SDS011;38422;53.172;6.974;2023-05-10T04:35:27;9.60;;;8.25;;
52512;SDS011;38422;53.172;6.974;2023-05-10T04:37:53;10.20;;;7.90;;
52512;SDS011;38422;53.172;6.974;2023-05-10T04:40:19;10.13;;;8.35;;
52512;SDS011;38422;53.172;6.974;2023-05-10T04:42:45;10.20;;;8.13;;
52512;SDS011;38422;53.172;6.974;2023-05-10T04:45:11;12.68;;;8.85;;
52512;SDS011;38422;53.172;6.974;2023-05-10T04:47:39;10.18;;;8.20;;
52512;SDS011;38422;53.172;6.974;2023-05-10T04:50:05;11.10;;;8.80;;
52512;SDS011;38422;53.172;6.974;2023-05-10T04:52:32;10.50;;;8.32;;
52512;SDS011;38422;53.172;6.974;2023-05-10T04:54:58;10.50;;;8.15;;
52512;SDS011;38422;53.172;6.974;2023-05-10T04:57:23;11.30;;;8.25;;
52512;SDS011;38422;53.172;6.974;2023-05-10T04:59:49;10.32;;;8.32;;
52512;SDS011;38422;53.172;6.974;2023-05-10T05:02:18;9.00;;;7.90;;
52512;SDS011;38422;53.172;6.974;2023-05-10T05:04:43;9.02;;;7.28;;
52512;SDS011;38422;53.172;6.974;2023-05-10T05:07:09;9.85;;;8.30;;
52512;SDS011;38422;53.172;6.974;2023-05-10T05:09:35;9.90;;;7.95;;
52512;SDS011;38422;53.172;6.974;2023-05-10T05:12:03;9.60;;;7.70;;
52512;SDS011;38422;53.172;6.974;2023-05-10T05:14:29;9.07;;;7.68;;
52512;SDS011;38422;53.172;6.974;2023-05-10T05:16:55;9.65;;;8.05;;
52512;SDS011;38422;53.172;6.974;2023-05-10T05:19:21;9.65;;;7.03;;
52512;SDS011;38422;53.172;6.974;2023-05-10T05:21:47;8.32;;;6.95;;
52512;SDS011;38422;53.172;6.974;2023-05-10T05:24:13;9.43;;;7.18;;
52512;SDS011;38422;53.172;6.974;2023-05-10T05:26:39;7.93;;;6.32;;
52512;SDS011;38422;53.172;6.974;2023-05-10T05:29:04;8.50;;;6.40;;
52512;SDS011;38422;53.172;6.974;2023-05-10T05:31:30;8.80;;;6.60;;
52512;SDS011;38422;53.172;6.974;2023-05-10T05:33:56;8.52;;;6.32;;
52512;SDS011;38422;53.172;6.974;2023-05-10T05:36:21;7.80;;;6.00;;
52512;SDS011;38422;53.172;6.974;2023-05-10T05:38:47;8.65;;;5.45;;
52512;SDS011;38422;53.172;6.974;2023-05-10T05:41:13;6.95;;;5.10;;
52512;SDS011;38422;53.172;6.974;2023-05-10T05:43:39;5.93;;;4.97;;
52512;SDS011;38422;53.172;6.974;2023-05-10T05:46:04;7.88;;;5.15;;
52512;SDS011;38422;53.172;6.974;2023-05-10T05:48:30;6.82;;;5.07;;
52512;SDS011;38422;53.172;6.974;2023-05-10T05:50:56;6.90;;;5.30;;
52512;SDS011;38422;53.172;6.974;2023-05-10T05:53:25;7.20;;;5.18;;
52512;SDS011;38422;53.172;6.974;2023-05-10T05:55:54;4.28;;;3.60;;
52512;SDS011;38422;53.172;6.974;2023-05-10T05:58:21;4.93;;;3.45;;
52512;SDS011;38422;53.172;6.974;2023-05-10T06:00:48;3.42;;;2.38;;
52512;SDS011;38422;53.172;6.974;2023-05-10T06:03:13;2.88;;;2.00;;
52512;SDS011;38422;53.172;6.974;2023-05-10T06:05:39;2.15;;;1.30;;
52512;SDS011;38422;53.172;6.974;2023-05-10T06:08:05;2.25;;;0.90;;
52512;SDS011;38422;53.172;6.974;2023-05-10T06:10:31;2.22;;;1.00;;
52512;SDS011;38422;53.172;6.974;2023-05-10T06:12:56;1.50;;;1.00;;
52512;SDS011;38422;53.172;6.974;2023-05-10T06:15:22;1.40;;;0.90;;
52512;SDS011;38422;53.172;6.974;2023-05-10T06:17:48;1.17;;;1.00;;
52512;SDS011;38422;53.172;6.974;2023-05-10T06:20:14;1.80;;;1.00;;
52512;SDS011;38422;53.172;6.974;2023-05-10T06:22:41;1.08;;;0.90;;
52512;SDS011;38422;53.172;6.974;2023-05-10T06:25:07;1.30;;;0.80;;
52512;SDS011;38422;53.172;6.974;2023-05-10T06:27:33;1.27;;;0.90;;
52512;SDS011;38422;53.172;6.974;2023-05-10T06:29:59;3.20;;;1.00;;
52512;SDS011;38422;53.172;6.974;2023-05-10T06:32:25;1.88;;;0.95;;
52512;SDS011;38422;53.172;6.974;2023-05-10T06:34:51;2.08;;;1.00;;
52512;SDS011;38422;53.172;6.974;2023-05-10T06:37:17;1.75;;;1.30;;
52512;SDS011;38422;53.172;6.974;2023-05-10T06:39:43;1.70;;;1.13;;
52512;SDS011;38422;53.172;6.974;2023-05-10T06:42:09;1.65;;;1.13;;
52512;SDS011;38422;53.172;6.974;2023-05-10T06:44:34;1.30;;;1.10;;
52512;SDS011;38422;53.172;6.974;2023-05-10T06:47:00;1.83;;;0.90;;
52512;SDS011;38422;53.172;6.974;2023-05-10T06:49:26;1.40;;;1.00;;
52512;SDS011;38422;53.172;6.974;2023-05-10T06:51:51;1.48;;;1.10;;
52512;SDS011;38422;53.172;6.974;2023-05-10T06:54:17;1.67;;;1.10;;
52512;SDS011;38422;53.172;6.974;2023-05-10T06:56:43;1.73;;;0.88;;
52512;SDS011;38422;53.172;6.974;2023-05-10T06:59:08;1.63;;;0.98;;
52512;SDS011;38422;53.172;6.974;2023-05-10T07:01:34;1.42;;;0.90;;
52512;SDS011;38422;53.172;6.974;2023-05-10T07:04:00;1.60;;;0.95;;
52512;SDS011;38422;53.172;6.974;2023-05-10T07:06:26;1.50;;;0.88;;
52512;SDS011;38422;53.172;6.974;2023-05-10T07:08:52;2.40;;;0.80;;
52512;SDS011;38422;53.172;6.974;2023-05-10T07:11:18;0.90;;;0.80;;
52512;SDS011;38422;53.172;6.974;2023-05-10T07:13:43;0.95;;;0.70;;
52512;SDS011;38422;53.172;6.974;2023-05-10T07:16:11;0.85;;;0.60;;
52512;SDS011;38422;53.172;6.974;2023-05-10T07:18:37;1.10;;;0.70;;
52512;SDS011;38422;53.172;6.974;2023-05-10T07:27:54;0.40;;;0.30;;
52512;SDS011;38422;53.172;6.974;2023-05-10T07:34:01;0.40;;;0.40;;
52512;SDS011;38422;53.172;6.974;2023-05-10T07:36:27;0.40;;;0.40;;
52512;SDS011;38422;53.172;6.974;2023-05-10T07:38:53;1.20;;;0.60;;
52512;SDS011;38422;53.172;6.974;2023-05-10T07:41:18;0.63;;;0.63;;
52512;SDS011;38422;53.172;6.974;2023-05-10T07:43:45;0.95;;;0.80;;
52512;SDS011;38422;53.172;6.974;2023-05-10T07:46:11;1.70;;;1.10;;
52512;SDS011;38422;53.172;6.974;2023-05-10T07:48:37;2.47;;;1.80;;
52512;SDS011;38422;53.172;6.974;2023-05-10T07:51:03;2.97;;;1.80;;
52512;SDS011;38422;53.172;6.974;2023-05-10T07:53:28;2.13;;;1.60;;
52512;SDS011;38422;53.172;6.974;2023-05-10T08:02:56;3.30;;;2.30;;
52512;SDS011;38422;53.172;6.974;2023-05-10T08:09:03;2.70;;;2.13;;
52512;SDS011;38422;53.172;6.974;2023-05-10T08:17:56;3.90;;;2.45;;
52512;SDS011;38422;53.172;6.974;2023-05-10T08:20:22;3.22;;;2.42;;
52512;SDS011;38422;53.172;6.974;2023-05-10T08:22:48;3.38;;;2.75;;
52512;SDS011;38422;53.172;6.974;2023-05-10T08:25:14;4.32;;;3.00;;
52512;SDS011;38422;53.172;6.974;2023-05-10T08:34:26;5.20;;;3.60;;
52512;SDS011;38422;53.172;6.974;2023-05-10T08:43:31;4.18;;;3.20;;
52512;SDS011;38422;53.172;6.974;2023-05-10T08:45:59;3.72;;;2.80;;
52512;SDS011;38422;53.172;6.974;2023-05-10T08:48:38;2.92;;;2.50;;
52512;SDS011;38422;53.172;6.974;2023-05-10T08:55:04;2.78;;;2.20;;
52512;SDS011;38422;53.172;6.974;2023-05-10T09:01:11;3.20;;;2.30;;
52512;SDS011;38422;53.172;6.974;2023-05-10T09:03:38;2.40;;;2.20;;
52512;SDS011;38422;53.172;6.974;2023-05-10T09:06:05;4.57;;;2.55;;
52512;SDS011;38422;53.172;6.974;2023-05-10T09:08:31;4.05;;;2.60;;
52512;SDS011;38422;53.172;6.974;2023-05-10T09:10:58;4.07;;;2.53;;
52512;SDS011;38422;53.172;6.974;2023-05-10T09:13:26;4.65;;;3.00;;
52512;SDS011;38422;53.172;6.974;2023-05-10T09:15:52;2.90;;;2.60;;
52512;SDS011;38422;53.172;6.974;2023-05-10T09:18:18;3.28;;;2.80;;
52512;SDS011;38422;53.172;6.974;2023-05-10T09:20:44;2.90;;;2.20;;
52512;SDS011;38422;53.172;6.974;2023-05-10T09:23:10;3.33;;;2.95;;
52512;SDS011;38422;53.172;6.974;2023-05-10T09:25:36;3.10;;;2.60;;
52512;SDS011;38422;53.172;6.974;2023-05-10T09:28:05;3.13;;;2.80;;
52512;SDS011;38422;53.172;6.974;2023-05-10T09:30:33;3.92;;;2.97;;
52512;SDS011;38422;53.172;6.974;2023-05-10T09:32:59;2.83;;;2.33;;
52512;SDS011;38422;53.172;6.974;2023-05-10T09:35:27;2.58;;;2.30;;
52512;SDS011;38422;53.172;6.974;2023-05-10T09:37:54;3.35;;;2.10;;
52512;SDS011;38422;53.172;6.974;2023-05-10T09:40:22;3.60;;;2.45;;
52512;SDS011;38422;53.172;6.974;2023-05-10T09:43:08;2.92;;;2.47;;
52512;SDS011;38422;53.172;6.974;2023-05-10T09:45:36;2.35;;;2.10;;
52512;SDS011;38422;53.172;6.974;2023-05-10T09:48:02;2.33;;;1.98;;
52512;SDS011;38422;53.172;6.974;2023-05-10T09:50:29;3.42;;;2.08;;
52512;SDS011;38422;53.172;6.974;2023-05-10T09:52:56;2.28;;;1.70;;
52512;SDS011;38422;53.172;6.974;2023-05-10T10:09:05;2.35;;;1.40;;
52512;SDS011;38422;53.172;6.974;2023-05-10T10:11:31;1.88;;;1.30;;
52512;SDS011;38422;53.172;6.974;2023-05-10T10:13:58;1.38;;;1.20;;
52512;SDS011;38422;53.172;6.974;2023-05-10T10:16:24;1.95;;;1.38;;
52512;SDS011;38422;53.172;6.974;2023-05-10T10:18:51;1.83;;;1.33;;
52512;SDS011;38422;53.172;6.974;2023-05-10T10:21:17;1.58;;;1.30;;
52512;SDS011;38422;53.172;6.974;2023-05-10T10:23:44;3.15;;;1.50;;
52512;SDS011;38422;53.172;6.974;2023-05-10T10:26:10;2.72;;;1.58;;
52512;SDS011;38422;53.172;6.974;2023-05-10T10:31:26;4.38;;;1.80;;
52512;SDS011;38422;53.172;6.974;2023-05-10T10:34:54;2.60;;;1.73;;
52512;SDS011;38422;53.172;6.974;2023-05-10T10:41:02;2.60;;;1.83;;
52512;SDS011;38422;53.172;6.974;2023-05-10T10:43:34;2.90;;;2.28;;
52512;SDS011;38422;53.172;6.974;2023-05-10T10:46:16;2.97;;;2.10;;
52512;SDS011;38422;53.172;6.974;2023-05-10T10:48:50;4.22;;;1.98;;
52512;SDS011;38422;53.172;6.974;2023-05-10T10:52:32;3.03;;;2.40;;
52512;SDS011;38422;53.172;6.974;2023-05-10T10:58:48;4.18;;;2.60;;
52512;SDS011;38422;53.172;6.974;2023-05-10T11:01:19;5.95;;;3.10;;
52512;SDS011;38422;53.172;6.974;2023-05-10T11:03:56;3.05;;;2.70;;
52512;SDS011;38422;53.172;6.974;2023-05-10T11:06:43;4.55;;;2.90;;
52512;SDS011;38422;53.172;6.974;2023-05-10T11:09:10;4.28;;;2.60;;
52512;SDS011;38422;53.172;6.974;2023-05-10T11:11:48;2.97;;;2.25;;
52512;SDS011;38422;53.172;6.974;2023-05-10T11:14:17;3.53;;;2.15;;
52512;SDS011;38422;53.172;6.974;2023-05-10T11:16:46;3.60;;;2.42;;
52512;SDS011;38422;53.172;6.974;2023-05-10T11:19:12;2.90;;;2.60;;
52512;SDS011;38422;53.172;6.974;2023-05-10T11:24:13;2.53;;;2.03;;
52512;SDS011;38422;53.172;6.974;2023-05-10T11:26:40;2.65;;;2.20;;
52512;SDS011;38422;53.172;6.974;2023-05-10T11:29:06;3.15;;;2.20;;
52512;SDS011;38422;53.172;6.974;2023-05-10T11:31:32;2.08;;;1.70;;
52512;SDS011;38422;53.172;6.974;2023-05-10T11:33:58;2.78;;;1.60;;
52512;SDS011;38422;53.172;6.974;2023-05-10T11:36:27;2.25;;;1.67;;
52512;SDS011;38422;53.172;6.974;2023-05-10T11:41:20;1.83;;;1.27;;
52512;SDS011;38422;53.172;6.974;2023-05-10T11:43:48;2.00;;;1.33;;
52512;SDS011;38422;53.172;6.974;2023-05-10T11:46:15;2.38;;;1.20;;
52512;SDS011;38422;53.172;6.974;2023-05-10T11:48:42;2.00;;;1.23;;
52512;SDS011;38422;53.172;6.974;2023-05-10T11:51:09;2.47;;;1.38;;
52512;SDS011;38422;53.172;6.974;2023-05-10T11:56:05;1.45;;;1.30;;
52512;SDS011;38422;53.172;6.974;2023-05-10T11:58:31;1.70;;;1.30;;
52512;SDS011;38422;53.172;6.974;2023-05-10T12:00:58;2.22;;;1.35;;
52512;SDS011;38422;53.172;6.974;2023-05-10T12:03:25;2.25;;;1.50;;
52512;SDS011;38422;53.172;6.974;2023-05-10T12:05:51;3.25;;;1.73;;
52512;SDS011;38422;53.172;6.974;2023-05-10T12:08:20;2.08;;;1.50;;
52512;SDS011;38422;53.172;6.974;2023-05-10T12:10:47;1.58;;;1.40;;
52512;SDS011;38422;53.172;6.974;2023-05-10T12:13:13;2.28;;;1.60;;
52512;SDS011;38422;53.172;6.974;2023-05-10T12:15:40;2.80;;;1.58;;
52512;SDS011;38422;53.172;6.974;2023-05-10T12:18:13;1.85;;;1.65;;
52512;SDS011;38422;53.172;6.974;2023-05-10T12:20:40;2.50;;;1.77;;
52512;SDS011;38422;53.172;6.974;2023-05-10T12:23:08;2.90;;;2.30;;
52512;SDS011;38422;53.172;6.974;2023-05-10T12:25:35;3.50;;;2.45;;
52512;SDS011;38422;53.172;6.974;2023-05-10T12:28:06;4.68;;;2.85;;
52512;SDS011;38422;53.172;6.974;2023-05-10T12:30:34;6.72;;;2.80;;
52512;SDS011;38422;53.172;6.974;2023-05-10T12:33:01;4.22;;;3.15;;
52512;SDS011;38422;53.172;6.974;2023-05-10T12:35:32;4.32;;;3.17;;
52512;SDS011;38422;53.172;6.974;2023-05-10T12:37:59;4.60;;;3.50;;
52512;SDS011;38422;53.172;6.974;2023-05-10T12:40:24;5.00;;;3.47;;
52512;SDS011;38422;53.172;6.974;2023-05-10T12:42:50;5.22;;;3.35;;
52512;SDS011;38422;53.172;6.974;2023-05-10T12:45:17;4.85;;;3.50;;
52512;SDS011;38422;53.172;6.974;2023-05-10T12:47:43;6.40;;;3.38;;
52512;SDS011;38422;53.172;6.974;2023-05-10T12:50:09;4.35;;;3.10;;
52512;SDS011;38422;53.172;6.974;2023-05-10T12:52:35;4.57;;;3.30;;
52512;SDS011;38422;53.172;6.974;2023-05-10T12:55:01;4.72;;;3.08;;
52512;SDS011;38422;53.172;6.974;2023-05-10T12:57:28;4.57;;;3.20;;
52512;SDS011;38422;53.172;6.974;2023-05-10T12:59:54;5.63;;;3.55;;
52512;SDS011;38422;53.172;6.974;2023-05-10T13:02:20;6.18;;;3.78;;
52512;SDS011;38422;53.172;6.974;2023-05-10T13:04:48;4.75;;;3.80;;
52512;SDS011;38422;53.172;6.974;2023-05-10T13:07:14;5.88;;;3.92;;
52512;SDS011;38422;53.172;6.974;2023-05-10T13:09:40;6.22;;;4.45;;
52512;SDS011;38422;53.172;6.974;2023-05-10T13:12:05;6.43;;;4.60;;
52512;SDS011;38422;53.172;6.974;2023-05-10T13:14:31;5.85;;;4.25;;
52512;SDS011;38422;53.172;6.974;2023-05-10T13:16:57;5.55;;;4.32;;
52512;SDS011;38422;53.172;6.974;2023-05-10T13:19:23;7.32;;;4.20;;
52512;SDS011;38422;53.172;6.974;2023-05-10T13:21:49;6.53;;;4.25;;
52512;SDS011;38422;53.172;6.974;2023-05-10T13:24:15;4.55;;;3.83;;
52512;SDS011;38422;53.172;6.974;2023-05-10T13:26:42;6.68;;;4.00;;
52512;SDS011;38422;53.172;6.974;2023-05-10T13:29:08;6.15;;;4.45;;
52512;SDS011;38422;53.172;6.974;2023-05-10T13:31:34;5.97;;;4.32;;
52512;SDS011;38422;53.172;6.974;2023-05-10T13:34:00;5.82;;;4.60;;
52512;SDS011;38422;53.172;6.974;2023-05-10T13:36:27;6.43;;;4.53;;
52512;SDS011;38422;53.172;6.974;2023-05-10T13:38:53;6.53;;;5.00;;
52512;SDS011;38422;53.172;6.974;2023-05-10T13:41:18;11.88;;;5.10;;
52512;SDS011;38422;53.172;6.974;2023-05-10T13:43:44;5.55;;;4.35;;
52512;SDS011;38422;53.172;6.974;2023-05-10T13:46:10;7.68;;;4.78;;
52512;SDS011;38422;53.172;6.974;2023-05-10T13:48:36;7.63;;;4.60;;
52512;SDS011;38422;53.172;6.974;2023-05-10T13:51:04;7.78;;;4.53;;
52512;SDS011;38422;53.172;6.974;2023-05-10T13:53:30;5.63;;;4.00;;
52512;SDS011;38422;53.172;6.974;2023-05-10T13:55:56;5.82;;;4.45;;
52512;SDS011;38422;53.172;6.974;2023-05-10T13:58:22;6.00;;;4.20;;
52512;SDS011;38422;53.172;6.974;2023-05-10T14:00:48;5.30;;;3.55;;
52512;SDS011;38422;53.172;6.974;2023-05-10T14:03:14;4.38;;;3.08;;
52512;SDS011;38422;53.172;6.974;2023-05-10T14:05:42;4.40;;;3.10;;
52512;SDS011;38422;53.172;6.974;2023-05-10T14:08:09;5.30;;;3.30;;
52512;SDS011;38422;53.172;6.974;2023-05-10T14:10:35;4.88;;;3.40;;
52512;SDS011;38422;53.172;6.974;2023-05-10T14:13:00;4.50;;;2.88;;
52512;SDS011;38422;53.172;6.974;2023-05-10T14:15:28;4.38;;;3.35;;
52512;SDS011;38422;53.172;6.974;2023-05-10T14:17:53;5.63;;;3.55;;
52512;SDS011;38422;53.172;6.974;2023-05-10T14:20:19;5.65;;;3.28;;
52512;SDS011;38422;53.172;6.974;2023-05-10T14:22:45;5.32;;;3.53;;
52512;SDS011;38422;53.172;6.974;2023-05-10T14:25:11;6.30;;;4.47;;
52512;SDS011;38422;53.172;6.974;2023-05-10T14:27:37;5.68;;;4.15;;
52512;SDS011;38422;53.172;6.974;2023-05-10T14:30:03;6.45;;;4.55;;
52512;SDS011;38422;53.172;6.974;2023-05-10T14:32:29;5.40;;;4.20;;
52512;SDS011;38422;53.172;6.974;2023-05-10T14:34:56;5.03;;;3.50;;
52512;SDS011;38422;53.172;6.974;2023-05-10T14:37:22;5.35;;;3.85;;
52512;SDS011;38422;53.172;6.974;2023-05-10T14:39:48;4.97;;;3.72;;
52512;SDS011;38422;53.172;6.974;2023-05-10T14:42:14;5.82;;;3.90;;
52512;SDS011;38422;53.172;6.974;2023-05-10T14:44:39;5.50;;;3.70;;
52512;SDS011;38422;53.172;6.974;2023-05-10T14:47:05;5.85;;;3.90;;
52512;SDS011;38422;53.172;6.974;2023-05-10T14:49:31;6.82;;;4.10;;
52512;SDS011;38422;53.172;6.974;2023-05-10T14:51:56;6.82;;;3.80;;
52512;SDS011;38422;53.172;6.974;2023-05-10T14:54:22;4.97;;;3.67;;
52512;SDS011;38422;53.172;6.974;2023-05-10T14:56:48;5.72;;;3.88;;
52512;SDS011;38422;53.172;6.974;2023-05-10T14:59:15;4.75;;;3.80;;
52512;SDS011;38422;53.172;6.974;2023-05-10T15:01:40;6.15;;;3.60;;
52512;SDS011;38422;53.172;6.974;2023-05-10T15:04:07;6.43;;;3.88;;
52512;SDS011;38422;53.172;6.974;2023-05-10T15:06:33;5.35;;;3.83;;
52512;SDS011;38422;53.172;6.974;2023-05-10T15:11:27;7.07;;;3.97;;
52512;SDS011;38422;53.172;6.974;2023-05-10T15:13:54;6.63;;;3.75;;
52512;SDS011;38422;53.172;6.974;2023-05-10T15:16:19;11.23;;;4.93;;
52512;SDS011;38422;53.172;6.974;2023-05-10T15:18:45;5.43;;;3.67;;
52512;SDS011;38422;53.172;6.974;2023-05-10T15:21:11;5.50;;;3.50;;
52512;SDS011;38422;53.172;6.974;2023-05-10T15:23:37;5.57;;;3.60;;
52512;SDS011;38422;53.172;6.974;2023-05-10T15:26:03;27.70;;;7.78;;
52512;SDS011;38422;53.172;6.974;2023-05-10T15:28:29;8.23;;;4.13;;
52512;SDS011;38422;53.172;6.974;2023-05-10T15:30:55;6.00;;;3.75;;
52512;SDS011;38422;53.172;6.974;2023-05-10T15:33:21;6.60;;;3.70;;
52512;SDS011;38422;53.172;6.974;2023-05-10T15:35:47;6.22;;;3.90;;
52512;SDS011;38422;53.172;6.974;2023-05-10T15:38:13;5.10;;;3.80;;
52512;SDS011;38422;53.172;6.974;2023-05-10T15:40:39;5.90;;;4.10;;
52512;SDS011;38422;53.172;6.974;2023-05-10T15:43:05;5.20;;;3.80;;
52512;SDS011;38422;53.172;6.974;2023-05-10T15:45:30;5.32;;;3.70;;
52512;SDS011;38422;53.172;6.974;2023-05-10T15:47:57;5.30;;;3.78;;
52512;SDS011;38422;53.172;6.974;2023-05-10T15:50:24;6.30;;;4.40;;
52512;SDS011;38422;53.172;6.974;2023-05-10T15:52:50;5.05;;;3.97;;
52512;SDS011;38422;53.172;6.974;2023-05-10T15:55:15;5.72;;;4.15;;
52512;SDS011;38422;53.172;6.974;2023-05-10T15:57:41;5.38;;;3.83;;
52512;SDS011;38422;53.172;6.974;2023-05-10T16:00:08;5.45;;;3.97;;
52512;SDS011;38422;53.172;6.974;2023-05-10T16:02:35;6.85;;;4.05;;
52512;SDS011;38422;53.172;6.974;2023-05-10T16:05:01;5.93;;;4.22;;
52512;SDS011;38422;53.172;6.974;2023-05-10T16:07:27;5.90;;;4.38;;
52512;SDS011;38422;53.172;6.974;2023-05-10T16:09:53;7.80;;;5.00;;
52512;SDS011;38422;53.172;6.974;2023-05-10T16:12:19;7.85;;;5.45;;
52512;SDS011;38422;53.172;6.974;2023-05-10T16:14:46;8.13;;;5.97;;
52512;SDS011;38422;53.172;6.974;2023-05-10T16:17:12;6.90;;;5.82;;
52512;SDS011;38422;53.172;6.974;2023-05-10T16:19:39;9.45;;;6.03;;
52512;SDS011;38422;53.172;6.974;2023-05-10T16:22:05;8.15;;;6.40;;
52512;SDS011;38422;53.172;6.974;2023-05-10T16:24:31;7.90;;;5.85;;
52512;SDS011;38422;53.172;6.974;2023-05-10T16:26:56;7.32;;;6.22;;
52512;SDS011;38422;53.172;6.974;2023-05-10T16:29:22;8.23;;;6.35;;
52512;SDS011;38422;53.172;6.974;2023-05-10T16:31:48;9.40;;;7.05;;
52512;SDS011;38422;53.172;6.974;2023-05-10T16:34:13;8.18;;;6.65;;
52512;SDS011;38422;53.172;6.974;2023-05-10T16:36:40;9.00;;;7.13;;
52512;SDS011;38422;53.172;6.974;2023-05-10T16:39:06;9.73;;;7.20;;
52512;SDS011;38422;53.172;6.974;2023-05-10T16:43:59;9.77;;;7.13;;